sensor_id;sensor_type;location;lat;lon;timestamp;temperature;humidity
19164;DHT22;9714;51.208;4.242;2022-12-13T00:00:44;-1.10;99.90
19164;DHT22;9714;51.208;4.242;2022-12-13T00:03:11;-1.00;99.90
19164;DHT22;9714;51.208;4.242;2022-12-13T00:05:42;-1.00;99.90
19164;DHT22;9714;51.208;4.242;2022-12-13T00:08:11;-1.00;99.90
19164;DHT22;9714;51.208;4.242;2022-12-13T00:10:38;-0.90;99.90
19164;DHT22;9714;51.208;4.242;2022-12-13T00:13:05;-1.10;99.90
19164;DHT22;9714;51.208;4.242;2022-12-13T00:15:32;-1.10;99.90
19164;DHT22;9714;51.208;4.242;2022-12-13T00:17:59;-1.30;99.90
19164;DHT22;9714;51.208;4.242;2022-12-13T00:20:26;-1.40;99.90
19164;DHT22;9714;51.208;4.242;2022-12-13T00:22:53;-1.30;99.90
19164;DHT22;9714;51.208;4.242;2022-12-13T00:25:21;-1.30;99.90
19164;DHT22;9714;51.208;4.242;2022-12-13T00:27:48;-1.30;99.90
19164;DHT22;9714;51.208;4.242;2022-12-13T00:30:16;-1.30;99.90
19164;DHT22;9714;51.208;4.242;2022-12-13T00:32:43;-1.20;99.90
19164;DHT22;9714;51.208;4.242;2022-12-13T00:35:10;-1.20;99.90
19164;DHT22;9714;51.208;4.242;2022-12-13T00:37:37;-1.10;99.90
19164;DHT22;9714;51.208;4.242;2022-12-13T00:40:05;-1.20;99.90
19164;DHT22;9714;51.208;4.242;2022-12-13T00:42:35;-1.10;99.90
19164;DHT22;9714;51.208;4.242;2022-12-13T00:45:02;-1.10;99.90
19164;DHT22;9714;51.208;4.242;2022-12-13T00:47:29;-1.30;99.90
19164;DHT22;9714;51.208;4.242;2022-12-13T00:49:56;-1.40;99.90
19164;DHT22;9714;51.208;4.242;2022-12-13T00:52:23;-1.50;99.90
19164;DHT22;9714;51.208;4.242;2022-12-13T00:55:04;-1.50;99.90
19164;DHT22;9714;51.208;4.242;2022-12-13T00:57:35;-1.50;99.90
19164;DHT22;9714;51.208;4.242;2022-12-13T01:00:09;-1.60;99.90
19164;DHT22;9714;51.208;4.242;2022-12-13T01:02:36;-1.60;99.90
19164;DHT22;9714;51.208;4.242;2022-12-13T01:05:06;-1.60;99.90
19164;DHT22;9714;51.208;4.242;2022-12-13T01:07:36;-1.60;99.90
19164;DHT22;9714;51.208;4.242;2022-12-13T01:10:05;-1.60;99.90
19164;DHT22;9714;51.208;4.242;2022-12-13T01:12:39;-1.50;99.90
19164;DHT22;9714;51.208;4.242;2022-12-13T01:15:08;-1.50;99.90
19164;DHT22;9714;51.208;4.242;2022-12-13T01:17:35;-1.40;99.90
19164;DHT22;9714;51.208;4.242;2022-12-13T01:20:03;-1.40;99.90
19164;DHT22;9714;51.208;4.242;2022-12-13T01:22:31;-1.50;99.90
19164;DHT22;9714;51.208;4.242;2022-12-13T01:24:58;-1.50;99.90
19164;DHT22;9714;51.208;4.242;2022-12-13T01:27:25;-1.40;99.90
19164;DHT22;9714;51.208;4.242;2022-12-13T01:29:54;-1.30;99.90
19164;DHT22;9714;51.208;4.242;2022-12-13T01:32:21;-1.30;99.90
19164;DHT22;9714;51.208;4.242;2022-12-13T01:34:54;-1.30;99.90
19164;DHT22;9714;51.208;4.242;2022-12-13T01:40:33;-1.40;99.90
19164;DHT22;9714;51.208;4.242;2022-12-13T01:43:01;-1.50;99.90
19164;DHT22;9714;51.208;4.242;2022-12-13T01:45:30;-1.50;99.90
19164;DHT22;9714;51.208;4.242;2022-12-13T01:47:59;-1.60;99.90
19164;DHT22;9714;51.208;4.242;2022-12-13T01:50:33;-1.70;99.90
19164;DHT22;9714;51.208;4.242;2022-12-13T01:53:03;-1.60;99.90
19164;DHT22;9714;51.208;4.242;2022-12-13T01:55:35;-1.50;99.90
19164;DHT22;9714;51.208;4.242;2022-12-13T01:58:04;-1.50;99.90
19164;DHT22;9714;51.208;4.242;2022-12-13T02:00:34;-1.60;99.90
19164;DHT22;9714;51.208;4.242;2022-12-13T02:03:02;-1.80;99.90
19164;DHT22;9714;51.208;4.242;2022-12-13T02:05:33;-1.80;99.90
19164;DHT22;9714;51.208;4.242;2022-12-13T02:08:04;-1.80;99.90
19164;DHT22;9714;51.208;4.242;2022-12-13T02:10:31;-1.90;99.90
19164;DHT22;9714;51.208;4.242;2022-12-13T02:12:59;-1.80;99.90
19164;DHT22;9714;51.208;4.242;2022-12-13T02:15:41;-1.80;99.90
19164;DHT22;9714;51.208;4.242;2022-12-13T02:18:23;-1.80;99.90
19164;DHT22;9714;51.208;4.242;2022-12-13T02:24:21;-1.70;99.90
19164;DHT22;9714;51.208;4.242;2022-12-13T02:27:06;-1.80;99.90
19164;DHT22;9714;51.208;4.242;2022-12-13T02:35:36;-1.90;99.90
19164;DHT22;9714;51.208;4.242;2022-12-13T02:38:10;-1.90;99.90
19164;DHT22;9714;51.208;4.242;2022-12-13T02:40:44;-1.90;99.90
19164;DHT22;9714;51.208;4.242;2022-12-13T02:43:16;-2.00;99.90
19164;DHT22;9714;51.208;4.242;2022-12-13T02:45:46;-2.00;99.90
19164;DHT22;9714;51.208;4.242;2022-12-13T02:48:18;-2.00;99.90
19164;DHT22;9714;51.208;4.242;2022-12-13T02:50:47;-1.90;99.90
19164;DHT22;9714;51.208;4.242;2022-12-13T02:53:17;-2.00;99.90
19164;DHT22;9714;51.208;4.242;2022-12-13T02:55:46;-2.00;99.90
19164;DHT22;9714;51.208;4.242;2022-12-13T02:58:13;-2.00;99.90
19164;DHT22;9714;51.208;4.242;2022-12-13T03:01:18;-2.00;99.90
19164;DHT22;9714;51.208;4.242;2022-12-13T03:03:53;-2.00;99.90
19164;DHT22;9714;51.208;4.242;2022-12-13T03:06:31;-1.90;99.90
19164;DHT22;9714;51.208;4.242;2022-12-13T03:09:13;-1.80;99.90
19164;DHT22;9714;51.208;4.242;2022-12-13T03:11:52;-1.60;99.90
19164;DHT22;9714;51.208;4.242;2022-12-13T03:14:50;-1.80;99.90
19164;DHT22;9714;51.208;4.242;2022-12-13T03:17:27;-1.90;99.90
19164;DHT22;9714;51.208;4.242;2022-12-13T03:20:22;-2.00;99.90
19164;DHT22;9714;51.208;4.242;2022-12-13T03:22:56;-2.00;99.90
19164;DHT22;9714;51.208;4.242;2022-12-13T03:25:29;-2.00;99.90
19164;DHT22;9714;51.208;4.242;2022-12-13T03:27:59;-2.10;99.90
19164;DHT22;9714;51.208;4.242;2022-12-13T03:30:32;-2.20;99.90
19164;DHT22;9714;51.208;4.242;2022-12-13T03:33:00;-2.20;99.90
19164;DHT22;9714;51.208;4.242;2022-12-13T03:35:34;-2.20;99.90
19164;DHT22;9714;51.208;4.242;2022-12-13T03:38:03;-2.10;99.90
19164;DHT22;9714;51.208;4.242;2022-12-13T03:40:31;-2.20;99.90
19164;DHT22;9714;51.208;4.242;2022-12-13T03:43:01;-2.20;99.90
19164;DHT22;9714;51.208;4.242;2022-12-13T03:45:29;-2.20;99.90
19164;DHT22;9714;51.208;4.242;2022-12-13T03:47:56;-2.10;99.90
19164;DHT22;9714;51.208;4.242;2022-12-13T03:50:24;-2.10;99.90
19164;DHT22;9714;51.208;4.242;2022-12-13T03:52:57;-2.00;99.90
19164;DHT22;9714;51.208;4.242;2022-12-13T03:55:25;-2.20;99.90
19164;DHT22;9714;51.208;4.242;2022-12-13T03:57:53;-2.10;99.90
19164;DHT22;9714;51.208;4.242;2022-12-13T04:00:22;-2.20;99.90
19164;DHT22;9714;51.208;4.242;2022-12-13T04:02:55;-2.20;99.90
19164;DHT22;9714;51.208;4.242;2022-12-13T04:05:23;-2.20;99.90
19164;DHT22;9714;51.208;4.242;2022-12-13T04:07:53;-2.00;99.90
19164;DHT22;9714;51.208;4.242;2022-12-13T04:10:22;-1.90;99.90
19164;DHT22;9714;51.208;4.242;2022-12-13T04:12:49;-1.90;99.90
19164;DHT22;9714;51.208;4.242;2022-12-13T04:15:34;-1.80;99.90
19164;DHT22;9714;51.208;4.242;2022-12-13T04:18:07;-2.00;99.90
19164;DHT22;9714;51.208;4.242;2022-12-13T04:20:35;-2.00;99.90
19164;DHT22;9714;51.208;4.242;2022-12-13T04:23:04;-2.20;99.90
19164;DHT22;9714;51.208;4.242;2022-12-13T04:25:32;-2.20;99.90
19164;DHT22;9714;51.208;4.242;2022-12-13T04:31:12;-2.20;99.90
19164;DHT22;9714;51.208;4.242;2022-12-13T04:33:39;-2.30;99.90
19164;DHT22;9714;51.208;4.242;2022-12-13T04:36:12;-2.30;99.90
19164;DHT22;9714;51.208;4.242;2022-12-13T04:38:46;-2.10;99.90
19164;DHT22;9714;51.208;4.242;2022-12-13T04:41:17;-2.10;99.90
19164;DHT22;9714;51.208;4.242;2022-12-13T04:43:49;-2.10;99.90
19164;DHT22;9714;51.208;4.242;2022-12-13T04:46:17;-2.10;99.90
19164;DHT22;9714;51.208;4.242;2022-12-13T04:48:44;-2.10;99.90
19164;DHT22;9714;51.208;4.242;2022-12-13T04:51:14;-2.00;99.90
19164;DHT22;9714;51.208;4.242;2022-12-13T04:53:49;-2.10;99.90
19164;DHT22;9714;51.208;4.242;2022-12-13T04:56:17;-2.10;99.90
19164;DHT22;9714;51.208;4.242;2022-12-13T04:58:44;-2.20;99.90
19164;DHT22;9714;51.208;4.242;2022-12-13T05:01:12;-2.20;99.90
19164;DHT22;9714;51.208;4.242;2022-12-13T05:03:40;-2.20;99.90
19164;DHT22;9714;51.208;4.242;2022-12-13T05:06:12;-2.20;99.90
19164;DHT22;9714;51.208;4.242;2022-12-13T05:08:42;-2.30;99.90
19164;DHT22;9714;51.208;4.242;2022-12-13T05:11:12;-2.20;99.90
19164;DHT22;9714;51.208;4.242;2022-12-13T05:13:39;-2.20;99.90
19164;DHT22;9714;51.208;4.242;2022-12-13T05:16:07;-2.20;99.90
19164;DHT22;9714;51.208;4.242;2022-12-13T05:18:35;-2.20;99.90
19164;DHT22;9714;51.208;4.242;2022-12-13T05:21:07;-2.10;99.90
19164;DHT22;9714;51.208;4.242;2022-12-13T05:23:37;-2.00;99.90
19164;DHT22;9714;51.208;4.242;2022-12-13T05:26:11;-2.00;99.90
19164;DHT22;9714;51.208;4.242;2022-12-13T05:28:39;-2.20;99.90
19164;DHT22;9714;51.208;4.242;2022-12-13T05:31:11;-2.10;99.90
19164;DHT22;9714;51.208;4.242;2022-12-13T05:33:38;-2.10;99.90
19164;DHT22;9714;51.208;4.242;2022-12-13T05:36:07;-2.00;99.90
19164;DHT22;9714;51.208;4.242;2022-12-13T05:38:34;-2.00;99.90
19164;DHT22;9714;51.208;4.242;2022-12-13T05:41:03;-2.00;99.90
19164;DHT22;9714;51.208;4.242;2022-12-13T05:43:33;-2.10;99.90
19164;DHT22;9714;51.208;4.242;2022-12-13T05:46:03;-2.10;99.90
19164;DHT22;9714;51.208;4.242;2022-12-13T05:48:30;-2.10;99.90
19164;DHT22;9714;51.208;4.242;2022-12-13T05:50:57;-2.10;99.90
19164;DHT22;9714;51.208;4.242;2022-12-13T05:53:26;-2.10;99.90
19164;DHT22;9714;51.208;4.242;2022-12-13T05:55:53;-2.10;99.90
19164;DHT22;9714;51.208;4.242;2022-12-13T05:58:21;-2.30;99.90
19164;DHT22;9714;51.208;4.242;2022-12-13T06:00:51;-2.30;99.90
19164;DHT22;9714;51.208;4.242;2022-12-13T06:03:19;-2.30;99.90
19164;DHT22;9714;51.208;4.242;2022-12-13T06:05:47;-2.20;99.90
19164;DHT22;9714;51.208;4.242;2022-12-13T06:08:14;-2.20;99.90
19164;DHT22;9714;51.208;4.242;2022-12-13T06:10:43;-2.20;99.90
19164;DHT22;9714;51.208;4.242;2022-12-13T06:13:16;-2.20;99.90
19164;DHT22;9714;51.208;4.242;2022-12-13T06:15:42;-2.10;99.90
19164;DHT22;9714;51.208;4.242;2022-12-13T06:18:14;-2.00;99.90
19164;DHT22;9714;51.208;4.242;2022-12-13T06:20:41;-2.00;99.90
19164;DHT22;9714;51.208;4.242;2022-12-13T06:23:08;-2.00;99.90
19164;DHT22;9714;51.208;4.242;2022-12-13T06:25:35;-2.00;99.90
19164;DHT22;9714;51.208;4.242;2022-12-13T06:28:03;-2.10;99.90
19164;DHT22;9714;51.208;4.242;2022-12-13T06:30:30;-2.00;99.90
19164;DHT22;9714;51.208;4.242;2022-12-13T06:32:57;-2.10;99.90
19164;DHT22;9714;51.208;4.242;2022-12-13T06:35:27;-2.00;99.90
19164;DHT22;9714;51.208;4.242;2022-12-13T06:37:55;-2.10;99.90
19164;DHT22;9714;51.208;4.242;2022-12-13T06:40:22;-2.10;99.90
19164;DHT22;9714;51.208;4.242;2022-12-13T06:42:49;-2.10;99.90
19164;DHT22;9714;51.208;4.242;2022-12-13T06:45:16;-2.00;99.90
19164;DHT22;9714;51.208;4.242;2022-12-13T06:47:43;-1.80;99.90
19164;DHT22;9714;51.208;4.242;2022-12-13T06:50:11;-1.80;99.90
19164;DHT22;9714;51.208;4.242;2022-12-13T06:52:45;-2.10;99.90
19164;DHT22;9714;51.208;4.242;2022-12-13T06:55:12;-2.10;99.90
19164;DHT22;9714;51.208;4.242;2022-12-13T06:57:39;-2.20;99.90
19164;DHT22;9714;51.208;4.242;2022-12-13T07:00:10;-2.30;99.90
19164;DHT22;9714;51.208;4.242;2022-12-13T07:02:40;-2.30;99.90
19164;DHT22;9714;51.208;4.242;2022-12-13T07:05:10;-2.10;99.90
19164;DHT22;9714;51.208;4.242;2022-12-13T07:07:39;-2.20;99.90
19164;DHT22;9714;51.208;4.242;2022-12-13T07:10:16;-2.20;99.90
19164;DHT22;9714;51.208;4.242;2022-12-13T07:12:48;-2.10;99.90
19164;DHT22;9714;51.208;4.242;2022-12-13T07:15:17;-2.20;99.90
19164;DHT22;9714;51.208;4.242;2022-12-13T07:17:48;-2.40;99.90
19164;DHT22;9714;51.208;4.242;2022-12-13T07:20:26;-2.20;99.90
19164;DHT22;9714;51.208;4.242;2022-12-13T07:22:53;-2.00;99.90
19164;DHT22;9714;51.208;4.242;2022-12-13T07:25:22;-2.00;99.90
19164;DHT22;9714;51.208;4.242;2022-12-13T07:27:57;-2.20;99.90
19164;DHT22;9714;51.208;4.242;2022-12-13T07:30:24;-2.20;99.90
19164;DHT22;9714;51.208;4.242;2022-12-13T07:32:51;-2.30;99.90
19164;DHT22;9714;51.208;4.242;2022-12-13T07:35:19;-2.40;99.90
19164;DHT22;9714;51.208;4.242;2022-12-13T07:37:48;-2.30;99.90
19164;DHT22;9714;51.208;4.242;2022-12-13T07:40:16;-2.40;99.90
19164;DHT22;9714;51.208;4.242;2022-12-13T07:42:49;-2.40;99.90
19164;DHT22;9714;51.208;4.242;2022-12-13T07:45:16;-2.30;99.90
19164;DHT22;9714;51.208;4.242;2022-12-13T07:47:43;-2.40;99.90
19164;DHT22;9714;51.208;4.242;2022-12-13T07:50:11;-2.20;99.90
19164;DHT22;9714;51.208;4.242;2022-12-13T07:52:39;-2.20;99.90
19164;DHT22;9714;51.208;4.242;2022-12-13T07:55:09;-2.10;99.90
19164;DHT22;9714;51.208;4.242;2022-12-13T07:57:36;-2.10;99.90
19164;DHT22;9714;51.208;4.242;2022-12-13T08:00:06;-2.20;99.90
19164;DHT22;9714;51.208;4.242;2022-12-13T08:02:34;-2.20;99.90
19164;DHT22;9714;51.208;4.242;2022-12-13T08:05:02;-2.10;99.90
19164;DHT22;9714;51.208;4.242;2022-12-13T08:07:29;-2.10;99.90
19164;DHT22;9714;51.208;4.242;2022-12-13T08:09:58;-2.00;99.90
19164;DHT22;9714;51.208;4.242;2022-12-13T08:12:26;-2.00;99.90
19164;DHT22;9714;51.208;4.242;2022-12-13T08:14:53;-1.90;99.90
19164;DHT22;9714;51.208;4.242;2022-12-13T08:17:22;-2.10;99.90
19164;DHT22;9714;51.208;4.242;2022-12-13T08:19:49;-2.00;99.90
19164;DHT22;9714;51.208;4.242;2022-12-13T08:22:17;-1.80;99.90
19164;DHT22;9714;51.208;4.242;2022-12-13T08:24:45;-1.80;99.90
19164;DHT22;9714;51.208;4.242;2022-12-13T08:27:12;-1.70;99.90
19164;DHT22;9714;51.208;4.242;2022-12-13T08:29:39;-1.60;99.90
19164;DHT22;9714;51.208;4.242;2022-12-13T08:32:07;-1.70;99.90
19164;DHT22;9714;51.208;4.242;2022-12-13T08:34:36;-1.70;99.90
19164;DHT22;9714;51.208;4.242;2022-12-13T08:37:03;-1.70;99.90
19164;DHT22;9714;51.208;4.242;2022-12-13T08:39:31;-1.50;99.90
19164;DHT22;9714;51.208;4.242;2022-12-13T08:41:59;-1.40;99.90
19164;DHT22;9714;51.208;4.242;2022-12-13T08:44:26;-1.50;99.90
19164;DHT22;9714;51.208;4.242;2022-12-13T08:46:52;-1.50;99.90
19164;DHT22;9714;51.208;4.242;2022-12-13T08:49:21;-1.50;99.90
19164;DHT22;9714;51.208;4.242;2022-12-13T08:51:50;-1.60;99.90
19164;DHT22;9714;51.208;4.242;2022-12-13T08:54:23;-1.40;99.90
19164;DHT22;9714;51.208;4.242;2022-12-13T08:56:50;-1.30;99.90
19164;DHT22;9714;51.208;4.242;2022-12-13T08:59:17;-1.20;99.90
19164;DHT22;9714;51.208;4.242;2022-12-13T09:01:44;-1.10;99.90
19164;DHT22;9714;51.208;4.242;2022-12-13T09:04:13;-0.90;99.90
19164;DHT22;9714;51.208;4.242;2022-12-13T09:06:42;-0.80;99.90
19164;DHT22;9714;51.208;4.242;2022-12-13T09:09:12;-0.90;99.90
19164;DHT22;9714;51.208;4.242;2022-12-13T09:11:40;-1.00;99.90
19164;DHT22;9714;51.208;4.242;2022-12-13T09:14:09;-1.00;99.90
19164;DHT22;9714;51.208;4.242;2022-12-13T09:16:39;-1.00;99.90
19164;DHT22;9714;51.208;4.242;2022-12-13T09:19:05;-1.00;99.90
19164;DHT22;9714;51.208;4.242;2022-12-13T09:21:33;-1.00;99.90
19164;DHT22;9714;51.208;4.242;2022-12-13T09:24:01;-1.00;99.90
19164;DHT22;9714;51.208;4.242;2022-12-13T09:26:42;-0.80;99.90
19164;DHT22;9714;51.208;4.242;2022-12-13T09:29:09;-0.50;99.90
19164;DHT22;9714;51.208;4.242;2022-12-13T09:31:37;-0.50;99.90
19164;DHT22;9714;51.208;4.242;2022-12-13T09:34:05;-0.30;99.90
19164;DHT22;9714;51.208;4.242;2022-12-13T09:36:34;-0.30;99.90
19164;DHT22;9714;51.208;4.242;2022-12-13T09:39:07;-0.20;99.90
19164;DHT22;9714;51.208;4.242;2022-12-13T09:41:42;-0.30;99.90
19164;DHT22;9714;51.208;4.242;2022-12-13T09:44:13;-0.20;99.90
19164;DHT22;9714;51.208;4.242;2022-12-13T09:46:44;-0.20;99.90
19164;DHT22;9714;51.208;4.242;2022-12-13T09:49:16;0.00;99.90
19164;DHT22;9714;51.208;4.242;2022-12-13T09:51:52;0.00;99.90
19164;DHT22;9714;51.208;4.242;2022-12-13T09:54:28;-0.10;99.90
19164;DHT22;9714;51.208;4.242;2022-12-13T09:57:15;-0.10;99.90
19164;DHT22;9714;51.208;4.242;2022-12-13T09:59:44;0.10;99.90
19164;DHT22;9714;51.208;4.242;2022-12-13T10:02:16;0.10;99.90
19164;DHT22;9714;51.208;4.242;2022-12-13T10:04:48;0.10;99.90
19164;DHT22;9714;51.208;4.242;2022-12-13T10:07:23;0.30;99.90
19164;DHT22;9714;51.208;4.242;2022-12-13T10:09:57;0.30;99.90
19164;DHT22;9714;51.208;4.242;2022-12-13T10:12:45;0.30;99.90
19164;DHT22;9714;51.208;4.242;2022-12-13T10:15:18;0.40;99.90
19164;DHT22;9714;51.208;4.242;2022-12-13T10:17:49;0.40;99.90
19164;DHT22;9714;51.208;4.242;2022-12-13T10:20:18;0.50;99.90
19164;DHT22;9714;51.208;4.242;2022-12-13T10:22:47;0.80;99.90
19164;DHT22;9714;51.208;4.242;2022-12-13T10:25:43;1.00;99.90
19164;DHT22;9714;51.208;4.242;2022-12-13T10:28:24;1.10;99.90
19164;DHT22;9714;51.208;4.242;2022-12-13T10:31:00;1.20;99.90
19164;DHT22;9714;51.208;4.242;2022-12-13T10:33:33;1.50;99.90
19164;DHT22;9714;51.208;4.242;2022-12-13T10:36:13;1.70;99.90
19164;DHT22;9714;51.208;4.242;2022-12-13T10:38:44;2.10;99.90
19164;DHT22;9714;51.208;4.242;2022-12-13T10:41:44;2.20;99.90
19164;DHT22;9714;51.208;4.242;2022-12-13T10:44:18;2.50;99.90
19164;DHT22;9714;51.208;4.242;2022-12-13T10:47:02;3.10;99.90
19164;DHT22;9714;51.208;4.242;2022-12-13T10:49:45;3.10;99.90
19164;DHT22;9714;51.208;4.242;2022-12-13T10:52:25;3.00;99.90
19164;DHT22;9714;51.208;4.242;2022-12-13T10:55:10;3.60;99.90
19164;DHT22;9714;51.208;4.242;2022-12-13T10:58:00;4.40;99.90
19164;DHT22;9714;51.208;4.242;2022-12-13T11:00:40;4.40;99.90
19164;DHT22;9714;51.208;4.242;2022-12-13T11:03:12;4.50;99.90
19164;DHT22;9714;51.208;4.242;2022-12-13T11:06:02;4.10;99.90
19164;DHT22;9714;51.208;4.242;2022-12-13T11:08:33;4.20;99.90
19164;DHT22;9714;51.208;4.242;2022-12-13T11:11:02;3.90;99.90
19164;DHT22;9714;51.208;4.242;2022-12-13T11:13:34;3.70;99.90
19164;DHT22;9714;51.208;4.242;2022-12-13T11:16:19;3.60;99.90
19164;DHT22;9714;51.208;4.242;2022-12-13T11:18:52;3.30;99.90
19164;DHT22;9714;51.208;4.242;2022-12-13T11:21:27;2.90;99.90
19164;DHT22;9714;51.208;4.242;2022-12-13T11:24:04;2.70;99.90
19164;DHT22;9714;51.208;4.242;2022-12-13T11:26:35;2.60;99.90
19164;DHT22;9714;51.208;4.242;2022-12-13T11:29:21;2.60;99.90
19164;DHT22;9714;51.208;4.242;2022-12-13T11:31:59;2.90;99.90
19164;DHT22;9714;51.208;4.242;2022-12-13T11:34:37;3.00;99.90
19164;DHT22;9714;51.208;4.242;2022-12-13T11:37:19;3.00;99.90
19164;DHT22;9714;51.208;4.242;2022-12-13T11:39:55;3.30;99.90
19164;DHT22;9714;51.208;4.242;2022-12-13T11:42:27;3.60;99.90
19164;DHT22;9714;51.208;4.242;2022-12-13T11:45:00;3.20;99.90
19164;DHT22;9714;51.208;4.242;2022-12-13T11:47:36;3.00;99.90
19164;DHT22;9714;51.208;4.242;2022-12-13T11:50:14;3.10;99.90
19164;DHT22;9714;51.208;4.242;2022-12-13T11:52:48;3.20;99.90
19164;DHT22;9714;51.208;4.242;2022-12-13T11:55:21;3.20;99.90
19164;DHT22;9714;51.208;4.242;2022-12-13T11:57:53;2.90;99.90
19164;DHT22;9714;51.208;4.242;2022-12-13T12:00:29;2.70;99.90
19164;DHT22;9714;51.208;4.242;2022-12-13T12:03:10;2.90;99.90
19164;DHT22;9714;51.208;4.242;2022-12-13T12:05:44;3.10;99.90
19164;DHT22;9714;51.208;4.242;2022-12-13T12:08:18;2.80;99.90
19164;DHT22;9714;51.208;4.242;2022-12-13T12:10:48;2.60;99.90
19164;DHT22;9714;51.208;4.242;2022-12-13T12:13:20;2.50;99.90
19164;DHT22;9714;51.208;4.242;2022-12-13T12:16:00;2.70;99.90
19164;DHT22;9714;51.208;4.242;2022-12-13T12:18:35;2.90;99.90
19164;DHT22;9714;51.208;4.242;2022-12-13T12:21:23;2.60;99.90
19164;DHT22;9714;51.208;4.242;2022-12-13T12:24:07;2.80;99.90
19164;DHT22;9714;51.208;4.242;2022-12-13T12:26:48;2.60;99.90
19164;DHT22;9714;51.208;4.242;2022-12-13T12:29:31;2.60;99.90
19164;DHT22;9714;51.208;4.242;2022-12-13T12:32:20;2.50;99.90
19164;DHT22;9714;51.208;4.242;2022-12-13T12:38:18;2.40;99.90
19164;DHT22;9714;51.208;4.242;2022-12-13T12:41:15;2.50;99.90
19164;DHT22;9714;51.208;4.242;2022-12-13T12:43:46;2.40;99.90
19164;DHT22;9714;51.208;4.242;2022-12-13T12:46:33;2.10;99.90
19164;DHT22;9714;51.208;4.242;2022-12-13T12:52:13;2.20;99.90
19164;DHT22;9714;51.208;4.242;2022-12-13T12:54:50;2.40;99.90
19164;DHT22;9714;51.208;4.242;2022-12-13T12:57:36;2.30;99.90
19164;DHT22;9714;51.208;4.242;2022-12-13T13:00:10;2.30;99.90
19164;DHT22;9714;51.208;4.242;2022-12-13T13:02:46;2.30;99.90
19164;DHT22;9714;51.208;4.242;2022-12-13T13:05:21;2.30;99.90
19164;DHT22;9714;51.208;4.242;2022-12-13T13:08:05;2.30;99.90
19164;DHT22;9714;51.208;4.242;2022-12-13T13:10:38;2.40;99.90
19164;DHT22;9714;51.208;4.242;2022-12-13T13:13:33;2.30;99.90
19164;DHT22;9714;51.208;4.242;2022-12-13T13:16:04;2.30;99.90
19164;DHT22;9714;51.208;4.242;2022-12-13T13:18:44;2.40;99.90
19164;DHT22;9714;51.208;4.242;2022-12-13T13:21:34;2.40;99.90
19164;DHT22;9714;51.208;4.242;2022-12-13T13:24:15;2.30;99.90
19164;DHT22;9714;51.208;4.242;2022-12-13T13:26:46;2.20;99.90
19164;DHT22;9714;51.208;4.242;2022-12-13T13:29:30;2.50;99.90
19164;DHT22;9714;51.208;4.242;2022-12-13T13:32:00;2.60;99.90
19164;DHT22;9714;51.208;4.242;2022-12-13T13:34:30;2.40;99.90
19164;DHT22;9714;51.208;4.242;2022-12-13T13:37:03;2.40;99.90
19164;DHT22;9714;51.208;4.242;2022-12-13T13:40:01;2.40;99.90
19164;DHT22;9714;51.208;4.242;2022-12-13T13:42:33;2.50;99.90
19164;DHT22;9714;51.208;4.242;2022-12-13T13:45:21;2.50;99.90
19164;DHT22;9714;51.208;4.242;2022-12-13T13:48:17;2.50;99.90
19164;DHT22;9714;51.208;4.242;2022-12-13T13:51:35;2.40;99.90
19164;DHT22;9714;51.208;4.242;2022-12-13T13:54:39;2.30;99.90
19164;DHT22;9714;51.208;4.242;2022-12-13T14:00:37;2.10;99.90
19164;DHT22;9714;51.208;4.242;2022-12-13T14:09:49;2.20;99.90
19164;DHT22;9714;51.208;4.242;2022-12-13T14:13:01;2.40;99.90
19164;DHT22;9714;51.208;4.242;2022-12-13T14:19:33;2.30;99.90
19164;DHT22;9714;51.208;4.242;2022-12-13T14:22:22;2.20;99.90
19164;DHT22;9714;51.208;4.242;2022-12-13T14:25:03;2.10;99.90
19164;DHT22;9714;51.208;4.242;2022-12-13T14:27:43;2.10;99.90
19164;DHT22;9714;51.208;4.242;2022-12-13T14:30:13;1.90;99.90
19164;DHT22;9714;51.208;4.242;2022-12-13T14:32:46;2.00;99.90
19164;DHT22;9714;51.208;4.242;2022-12-13T14:35:25;2.00;99.90
19164;DHT22;9714;51.208;4.242;2022-12-13T14:37:57;2.00;99.90
19164;DHT22;9714;51.208;4.242;2022-12-13T14:40:28;2.20;99.90
19164;DHT22;9714;51.208;4.242;2022-12-13T14:42:57;2.30;99.90
19164;DHT22;9714;51.208;4.242;2022-12-13T14:45:27;2.20;99.90
19164;DHT22;9714;51.208;4.242;2022-12-13T14:47:58;2.00;99.90
19164;DHT22;9714;51.208;4.242;2022-12-13T14:50:31;1.90;99.90
19164;DHT22;9714;51.208;4.242;2022-12-13T14:53:01;1.90;99.90
19164;DHT22;9714;51.208;4.242;2022-12-13T14:55:30;1.80;99.90
19164;DHT22;9714;51.208;4.242;2022-12-13T14:58:01;1.90;99.90
19164;DHT22;9714;51.208;4.242;2022-12-13T15:00:31;2.10;99.90
19164;DHT22;9714;51.208;4.242;2022-12-13T15:03:03;2.00;99.90
19164;DHT22;9714;51.208;4.242;2022-12-13T15:05:35;1.70;99.90
19164;DHT22;9714;51.208;4.242;2022-12-13T15:08:07;1.70;99.90
19164;DHT22;9714;51.208;4.242;2022-12-13T15:10:38;1.70;99.90
19164;DHT22;9714;51.208;4.242;2022-12-13T15:13:22;1.70;99.90
19164;DHT22;9714;51.208;4.242;2022-12-13T15:15:52;1.70;99.90
19164;DHT22;9714;51.208;4.242;2022-12-13T15:18:23;1.60;99.90
19164;DHT22;9714;51.208;4.242;2022-12-13T15:20:53;1.40;99.90
19164;DHT22;9714;51.208;4.242;2022-12-13T15:23:22;1.30;99.90
19164;DHT22;9714;51.208;4.242;2022-12-13T15:25:56;1.20;99.90
19164;DHT22;9714;51.208;4.242;2022-12-13T15:28:26;1.10;99.90
19164;DHT22;9714;51.208;4.242;2022-12-13T15:30:54;1.20;99.90
19164;DHT22;9714;51.208;4.242;2022-12-13T15:33:23;1.30;99.90
19164;DHT22;9714;51.208;4.242;2022-12-13T15:36:03;1.30;99.90
19164;DHT22;9714;51.208;4.242;2022-12-13T15:38:33;1.30;99.90
19164;DHT22;9714;51.208;4.242;2022-12-13T15:41:14;1.30;99.90
19164;DHT22;9714;51.208;4.242;2022-12-13T15:43:44;1.10;99.90
19164;DHT22;9714;51.208;4.242;2022-12-13T15:46:23;1.00;99.90
19164;DHT22;9714;51.208;4.242;2022-12-13T15:48:53;1.00;99.90
19164;DHT22;9714;51.208;4.242;2022-12-13T15:51:24;0.90;99.90
19164;DHT22;9714;51.208;4.242;2022-12-13T15:54:17;1.00;99.90
19164;DHT22;9714;51.208;4.242;2022-12-13T15:56:59;0.90;99.90
19164;DHT22;9714;51.208;4.242;2022-12-13T15:59:29;1.10;99.90
19164;DHT22;9714;51.208;4.242;2022-12-13T16:01:58;1.00;99.90
19164;DHT22;9714;51.208;4.242;2022-12-13T16:04:30;1.00;99.90
19164;DHT22;9714;51.208;4.242;2022-12-13T16:07:00;1.10;99.90
19164;DHT22;9714;51.208;4.242;2022-12-13T16:09:34;1.30;99.90
19164;DHT22;9714;51.208;4.242;2022-12-13T16:12:06;1.30;99.90
19164;DHT22;9714;51.208;4.242;2022-12-13T16:14:41;1.40;99.90
19164;DHT22;9714;51.208;4.242;2022-12-13T16:17:20;1.50;99.90
19164;DHT22;9714;51.208;4.242;2022-12-13T16:19:49;1.20;99.90
19164;DHT22;9714;51.208;4.242;2022-12-13T16:22:17;0.80;99.90
19164;DHT22;9714;51.208;4.242;2022-12-13T16:24:46;0.60;99.90
19164;DHT22;9714;51.208;4.242;2022-12-13T16:27:14;0.70;99.90
19164;DHT22;9714;51.208;4.242;2022-12-13T16:29:41;0.60;99.90
19164;DHT22;9714;51.208;4.242;2022-12-13T16:32:08;0.40;99.90
19164;DHT22;9714;51.208;4.242;2022-12-13T16:34:35;0.60;99.90
19164;DHT22;9714;51.208;4.242;2022-12-13T16:37:02;0.60;99.90
19164;DHT22;9714;51.208;4.242;2022-12-13T16:39:31;0.60;99.90
19164;DHT22;9714;51.208;4.242;2022-12-13T16:41:58;0.70;99.90
19164;DHT22;9714;51.208;4.242;2022-12-13T16:44:31;0.70;99.90
19164;DHT22;9714;51.208;4.242;2022-12-13T16:46:59;0.50;99.90
19164;DHT22;9714;51.208;4.242;2022-12-13T16:49:28;0.50;99.90
19164;DHT22;9714;51.208;4.242;2022-12-13T16:51:55;0.60;99.90
19164;DHT22;9714;51.208;4.242;2022-12-13T16:54:25;0.50;99.90
19164;DHT22;9714;51.208;4.242;2022-12-13T16:56:53;0.60;99.90
19164;DHT22;9714;51.208;4.242;2022-12-13T16:59:22;0.50;99.90
19164;DHT22;9714;51.208;4.242;2022-12-13T17:01:49;0.50;99.90